sensor_id;sensor_type;location;lat;lon;timestamp;pressure;altitude;pressure_sealevel;temperature;humidity
8318;BME280;4196;48.926;8.964;2023-01-15T00:00:04;97826.78;;;10.83;100.00
8318;BME280;4196;48.926;8.964;2023-01-15T00:02:51;97810.34;;;10.84;100.00
8318;BME280;4196;48.926;8.964;2023-01-15T00:05:37;97813.69;;;10.89;100.00
8318;BME280;4196;48.926;8.964;2023-01-15T00:08:24;97813.72;;;10.87;100.00
8318;BME280;4196;48.926;8.964;2023-01-15T00:11:10;97820.72;;;10.84;100.00
8318;BME280;4196;48.926;8.964;2023-01-15T00:13:57;97805.88;;;10.91;100.00
8318;BME280;4196;48.926;8.964;2023-01-15T00:16:44;97799.00;;;10.89;100.00
8318;BME280;4196;48.926;8.964;2023-01-15T00:19:30;97787.00;;;10.85;100.00
8318;BME280;4196;48.926;8.964;2023-01-15T00:22:17;97782.66;;;10.87;100.00
8318;BME280;4196;48.926;8.964;2023-01-15T00:25:04;97770.47;;;10.91;100.00
8318;BME280;4196;48.926;8.964;2023-01-15T00:28:12;97766.84;;;10.98;100.00
8318;BME280;4196;48.926;8.964;2023-01-15T00:30:58;97764.38;;;10.94;100.00
8318;BME280;4196;48.926;8.964;2023-01-15T00:33:45;97759.81;;;11.03;100.00
8318;BME280;4196;48.926;8.964;2023-01-15T00:36:31;97751.31;;;10.98;100.00
8318;BME280;4196;48.926;8.964;2023-01-15T00:39:19;97751.69;;;11.17;100.00
8318;BME280;4196;48.926;8.964;2023-01-15T00:42:06;97756.94;;;11.14;100.00
8318;BME280;4196;48.926;8.964;2023-01-15T00:44:52;97752.69;;;11.11;100.00
8318;BME280;4196;48.926;8.964;2023-01-15T00:47:41;97745.94;;;11.06;100.00
8318;BME280;4196;48.926;8.964;2023-01-15T00:50:28;97739.13;;;11.02;100.00
8318;BME280;4196;48.926;8.964;2023-01-15T00:53:16;97734.94;;;10.96;100.00
8318;BME280;4196;48.926;8.964;2023-01-15T00:56:02;97720.38;;;10.94;100.00
8318;BME280;4196;48.926;8.964;2023-01-15T00:58:49;97730.47;;;11.03;100.00
8318;BME280;4196;48.926;8.964;2023-01-15T01:01:36;97721.06;;;10.99;100.00
8318;BME280;4196;48.926;8.964;2023-01-15T01:04:23;97727.81;;;11.06;100.00
8318;BME280;4196;48.926;8.964;2023-01-15T01:07:10;97724.97;;;11.15;100.00
8318;BME280;4196;48.926;8.964;2023-01-15T01:09:57;97723.34;;;11.11;100.00
8318;BME280;4196;48.926;8.964;2023-01-15T01:12:44;97726.56;;;11.19;100.00
8318;BME280;4196;48.926;8.964;2023-01-15T01:15:34;97712.97;;;11.11;100.00
8318;BME280;4196;48.926;8.964;2023-01-15T01:18:21;97701.84;;;11.07;100.00
8318;BME280;4196;48.926;8.964;2023-01-15T01:21:08;97709.53;;;11.10;100.00
8318;BME280;4196;48.926;8.964;2023-01-15T01:23:57;97724.88;;;11.18;100.00
8318;BME280;4196;48.926;8.964;2023-01-15T01:26:44;97705.22;;;11.11;100.00
8318;BME280;4196;48.926;8.964;2023-01-15T01:29:31;97708.19;;;11.28;100.00
8318;BME280;4196;48.926;8.964;2023-01-15T01:32:18;97700.44;;;11.28;100.00
8318;BME280;4196;48.926;8.964;2023-01-15T01:35:04;97701.91;;;11.37;100.00
8318;BME280;4196;48.926;8.964;2023-01-15T01:37:51;97711.28;;;11.41;100.00
8318;BME280;4196;48.926;8.964;2023-01-15T01:40:37;97704.56;;;11.35;100.00
8318;BME280;4196;48.926;8.964;2023-01-15T01:43:28;97693.41;;;11.32;100.00
8318;BME280;4196;48.926;8.964;2023-01-15T01:46:15;97694.28;;;11.32;100.00
8318;BME280;4196;48.926;8.964;2023-01-15T01:49:07;97674.47;;;11.30;100.00
8318;BME280;4196;48.926;8.964;2023-01-15T01:52:01;97682.22;;;11.31;100.00
8318;BME280;4196;48.926;8.964;2023-01-15T01:54:49;97681.06;;;11.42;100.00
8318;BME280;4196;48.926;8.964;2023-01-15T01:57:37;97678.47;;;11.42;100.00
8318;BME280;4196;48.926;8.964;2023-01-15T02:00:25;97682.00;;;11.39;100.00
8318;BME280;4196;48.926;8.964;2023-01-15T02:03:13;97640.00;;;11.28;100.00
8318;BME280;4196;48.926;8.964;2023-01-15T02:06:02;97664.97;;;11.30;100.00
8318;BME280;4196;48.926;8.964;2023-01-15T02:08:50;97660.75;;;11.26;100.00
8318;BME280;4196;48.926;8.964;2023-01-15T02:11:37;97665.13;;;11.24;100.00
8318;BME280;4196;48.926;8.964;2023-01-15T02:14:32;97656.38;;;11.28;100.00
8318;BME280;4196;48.926;8.964;2023-01-15T02:17:30;97603.72;;;10.97;100.00
8318;BME280;4196;48.926;8.964;2023-01-15T02:20:24;97656.38;;;11.28;100.00
8318;BME280;4196;48.926;8.964;2023-01-15T02:23:37;97652.97;;;11.26;100.00
8318;BME280;4196;48.926;8.964;2023-01-15T02:29:59;97649.75;;;11.18;100.00
8318;BME280;4196;48.926;8.964;2023-01-15T02:33:23;97630.72;;;11.19;100.00
8318;BME280;4196;48.926;8.964;2023-01-15T02:36:14;97642.78;;;11.20;100.00
8318;BME280;4196;48.926;8.964;2023-01-15T02:39:05;97634.41;;;11.12;100.00
8318;BME280;4196;48.926;8.964;2023-01-15T02:41:55;97646.38;;;11.16;100.00
8318;BME280;4196;48.926;8.964;2023-01-15T02:44:50;97641.97;;;11.18;100.00
8318;BME280;4196;48.926;8.964;2023-01-15T02:47:40;97648.13;;;11.14;100.00
8318;BME280;4196;48.926;8.964;2023-01-15T02:50:34;97630.63;;;11.22;100.00
8318;BME280;4196;48.926;8.964;2023-01-15T02:53:25;97645.41;;;11.19;100.00
8318;BME280;4196;48.926;8.964;2023-01-15T02:56:18;97631.97;;;11.06;100.00
8318;BME280;4196;48.926;8.964;2023-01-15T02:59:12;97641.50;;;11.04;100.00
8318;BME280;4196;48.926;8.964;2023-01-15T03:02:05;97626.22;;;10.95;100.00
8318;BME280;4196;48.926;8.964;2023-01-15T03:05:17;97625.59;;;10.86;100.00
8318;BME280;4196;48.926;8.964;2023-01-15T03:08:08;97612.31;;;10.99;100.00
8318;BME280;4196;48.926;8.964;2023-01-15T03:11:07;97609.16;;;10.87;100.00
8318;BME280;4196;48.926;8.964;2023-01-15T03:14:23;97607.88;;;11.02;100.00
8318;BME280;4196;48.926;8.964;2023-01-15T03:17:20;97598.38;;;11.03;100.00
8318;BME280;4196;48.926;8.964;2023-01-15T03:20:18;97588.72;;;11.08;100.00
8318;BME280;4196;48.926;8.964;2023-01-15T03:23:09;97591.22;;;11.11;100.00
8318;BME280;4196;48.926;8.964;2023-01-15T03:25:57;97604.81;;;11.19;100.00
8318;BME280;4196;48.926;8.964;2023-01-15T03:28:44;97598.69;;;11.22;100.00
8318;BME280;4196;48.926;8.964;2023-01-15T03:31:34;97586.59;;;11.22;100.00
8318;BME280;4196;48.926;8.964;2023-01-15T03:34:24;97591.66;;;11.27;100.00
8318;BME280;4196;48.926;8.964;2023-01-15T03:37:16;97595.88;;;11.29;100.00
8318;BME280;4196;48.926;8.964;2023-01-15T03:40:03;97587.41;;;11.24;100.00
8318;BME280;4196;48.926;8.964;2023-01-15T03:42:56;97580.41;;;11.26;100.00
8318;BME280;4196;48.926;8.964;2023-01-15T03:58:45;97594.09;;;11.31;100.00
8318;BME280;4196;48.926;8.964;2023-01-15T04:01:39;97582.06;;;11.30;100.00
8318;BME280;4196;48.926;8.964;2023-01-15T04:04:29;97582.66;;;11.39;100.00
8318;BME280;4196;48.926;8.964;2023-01-15T04:07:19;97567.44;;;11.28;100.00
8318;BME280;4196;48.926;8.964;2023-01-15T04:10:08;97570.56;;;11.39;100.00
8318;BME280;4196;48.926;8.964;2023-01-15T04:12:55;97581.84;;;11.36;100.00
8318;BME280;4196;48.926;8.964;2023-01-15T04:15:42;97571.47;;;11.36;100.00
8318;BME280;4196;48.926;8.964;2023-01-15T04:18:29;97576.50;;;11.43;100.00
8318;BME280;4196;48.926;8.964;2023-01-15T04:21:16;97580.09;;;11.37;100.00
8318;BME280;4196;48.926;8.964;2023-01-15T04:24:03;97579.47;;;11.30;100.00
8318;BME280;4196;48.926;8.964;2023-01-15T04:26:49;97569.50;;;11.45;100.00
8318;BME280;4196;48.926;8.964;2023-01-15T04:29:36;97554.06;;;11.42;100.00
8318;BME280;4196;48.926;8.964;2023-01-15T04:32:23;97567.56;;;11.53;100.00
8318;BME280;4196;48.926;8.964;2023-01-15T04:35:09;97564.16;;;11.51;100.00
8318;BME280;4196;48.926;8.964;2023-01-15T04:37:57;97536.81;;;11.41;100.00
8318;BME280;4196;48.926;8.964;2023-01-15T04:40:44;97570.25;;;11.48;100.00
8318;BME280;4196;48.926;8.964;2023-01-15T04:43:50;97598.16;;;11.40;100.00
8318;BME280;4196;48.926;8.964;2023-01-15T04:46:52;97635.38;;;10.75;100.00
8318;BME280;4196;48.926;8.964;2023-01-15T04:49:39;97675.03;;;9.65;100.00
8318;BME280;4196;48.926;8.964;2023-01-15T04:52:25;97654.19;;;8.86;100.00
8318;BME280;4196;48.926;8.964;2023-01-15T04:55:11;97673.97;;;8.35;100.00
8318;BME280;4196;48.926;8.964;2023-01-15T04:57:58;97668.31;;;8.14;100.00
8318;BME280;4196;48.926;8.964;2023-01-15T05:00:44;97698.66;;;7.95;100.00
8318;BME280;4196;48.926;8.964;2023-01-15T05:03:31;97703.25;;;7.72;100.00
8318;BME280;4196;48.926;8.964;2023-01-15T05:06:17;97711.13;;;7.61;100.00
8318;BME280;4196;48.926;8.964;2023-01-15T05:09:04;97714.66;;;7.51;100.00
8318;BME280;4196;48.926;8.964;2023-01-15T05:11:51;97694.25;;;7.36;100.00
8318;BME280;4196;48.926;8.964;2023-01-15T05:14:37;97726.13;;;7.27;100.00
8318;BME280;4196;48.926;8.964;2023-01-15T05:17:23;97729.56;;;7.26;100.00
8318;BME280;4196;48.926;8.964;2023-01-15T05:20:10;97723.69;;;7.13;100.00
8318;BME280;4196;48.926;8.964;2023-01-15T05:22:56;97739.28;;;6.98;100.00
8318;BME280;4196;48.926;8.964;2023-01-15T05:25:42;97765.00;;;6.99;100.00
8318;BME280;4196;48.926;8.964;2023-01-15T05:28:29;97759.06;;;6.93;100.00
8318;BME280;4196;48.926;8.964;2023-01-15T05:31:17;97763.41;;;6.89;100.00
8318;BME280;4196;48.926;8.964;2023-01-15T05:34:04;97765.97;;;6.89;100.00
8318;BME280;4196;48.926;8.964;2023-01-15T05:36:50;97757.44;;;6.83;100.00
8318;BME280;4196;48.926;8.964;2023-01-15T05:39:37;97759.16;;;6.82;100.00
8318;BME280;4196;48.926;8.964;2023-01-15T05:42:23;97759.16;;;6.85;100.00
8318;BME280;4196;48.926;8.964;2023-01-15T05:45:09;97778.03;;;6.80;100.00
8318;BME280;4196;48.926;8.964;2023-01-15T05:47:56;97781.47;;;6.77;100.00
8318;BME280;4196;48.926;8.964;2023-01-15T05:50:43;97785.75;;;6.80;100.00
8318;BME280;4196;48.926;8.964;2023-01-15T05:53:29;97789.19;;;6.82;100.00
8318;BME280;4196;48.926;8.964;2023-01-15T05:56:20;97797.72;;;6.87;100.00
8318;BME280;4196;48.926;8.964;2023-01-15T05:59:07;97795.19;;;6.81;100.00
8318;BME280;4196;48.926;8.964;2023-01-15T06:01:54;97784.06;;;6.77;100.00
8318;BME280;4196;48.926;8.964;2023-01-15T06:04:40;97785.94;;;6.57;100.00
8318;BME280;4196;48.926;8.964;2023-01-15T06:07:26;97808.22;;;6.59;100.00
8318;BME280;4196;48.926;8.964;2023-01-15T06:10:15;97789.41;;;6.51;100.00
8318;BME280;4196;48.926;8.964;2023-01-15T06:13:01;97795.44;;;6.47;100.00
8318;BME280;4196;48.926;8.964;2023-01-15T06:15:48;97805.78;;;6.36;100.00
8318;BME280;4196;48.926;8.964;2023-01-15T06:18:35;97829.81;;;6.32;100.00
8318;BME280;4196;48.926;8.964;2023-01-15T06:21:22;97828.97;;;6.27;100.00
8318;BME280;4196;48.926;8.964;2023-01-15T06:24:09;97836.78;;;6.09;100.00
8318;BME280;4196;48.926;8.964;2023-01-15T06:26:56;97830.84;;;5.90;100.00
8318;BME280;4196;48.926;8.964;2023-01-15T06:29:43;97843.72;;;5.82;100.00
8318;BME280;4196;48.926;8.964;2023-01-15T06:32:29;97871.97;;;5.73;100.00
8318;BME280;4196;48.926;8.964;2023-01-15T06:35:15;97882.28;;;5.65;100.00
8318;BME280;4196;48.926;8.964;2023-01-15T06:38:05;97893.41;;;5.66;100.00
8318;BME280;4196;48.926;8.964;2023-01-15T06:40:53;97872.00;;;5.59;100.00
8318;BME280;4196;48.926;8.964;2023-01-15T06:43:40;97870.31;;;5.56;100.00
8318;BME280;4196;48.926;8.964;2023-01-15T06:46:47;97898.56;;;5.50;100.00
8318;BME280;4196;48.926;8.964;2023-01-15T06:49:54;97893.41;;;5.50;100.00
8318;BME280;4196;48.926;8.964;2023-01-15T06:52:42;97909.69;;;5.43;100.00
8318;BME280;4196;48.926;8.964;2023-01-15T06:55:28;97907.97;;;5.44;100.00
8318;BME280;4196;48.926;8.964;2023-01-15T06:58:15;97911.38;;;5.33;100.00
8318;BME280;4196;48.926;8.964;2023-01-15T07:01:07;97930.22;;;5.32;100.00
8318;BME280;4196;48.926;8.964;2023-01-15T07:03:54;97929.38;;;5.24;100.00
8318;BME280;4196;48.926;8.964;2023-01-15T07:06:41;97948.19;;;5.19;100.00
8318;BME280;4196;48.926;8.964;2023-01-15T07:09:28;97943.03;;;5.08;100.00
8318;BME280;4196;48.926;8.964;2023-01-15T07:12:14;97943.03;;;5.08;100.00
8318;BME280;4196;48.926;8.964;2023-01-15T07:15:01;97950.72;;;5.00;100.00
8318;BME280;4196;48.926;8.964;2023-01-15T07:17:47;97943.03;;;4.99;100.00
8318;BME280;4196;48.926;8.964;2023-01-15T07:20:34;97957.56;;;4.95;100.00
8318;BME280;4196;48.926;8.964;2023-01-15T07:23:21;97956.72;;;4.90;100.00
8318;BME280;4196;48.926;8.964;2023-01-15T07:26:07;97954.13;;;4.89;100.00
8318;BME280;4196;48.926;8.964;2023-01-15T07:28:54;97949.00;;;4.92;100.00
8318;BME280;4196;48.926;8.964;2023-01-15T07:31:40;97965.28;;;4.98;100.00
8318;BME280;4196;48.926;8.964;2023-01-15T07:34:27;97970.38;;;4.92;100.00
8318;BME280;4196;48.926;8.964;2023-01-15T07:37:13;97953.25;;;4.85;100.00
8318;BME280;4196;48.926;8.964;2023-01-15T07:39:59;97970.38;;;4.92;100.00
8318;BME280;4196;48.926;8.964;2023-01-15T07:42:46;97978.94;;;4.94;100.00
8318;BME280;4196;48.926;8.964;2023-01-15T07:45:50;97957.56;;;4.88;100.00
8318;BME280;4196;48.926;8.964;2023-01-15T07:48:56;97972.06;;;4.89;100.00
8318;BME280;4196;48.926;8.964;2023-01-15T07:52:05;97984.06;;;5.00;100.00
8318;BME280;4196;48.926;8.964;2023-01-15T07:54:52;98001.19;;;5.06;100.00
8318;BME280;4196;48.926;8.964;2023-01-15T07:57:39;98018.28;;;5.02;100.00
8318;BME280;4196;48.926;8.964;2023-01-15T08:00:26;98024.28;;;5.15;100.00
8318;BME280;4196;48.926;8.964;2023-01-15T08:03:12;98029.47;;;5.20;100.00
8318;BME280;4196;48.926;8.964;2023-01-15T08:05:59;98013.22;;;5.24;100.00
8318;BME280;4196;48.926;8.964;2023-01-15T08:08:46;98002.06;;;5.22;100.00
8318;BME280;4196;48.926;8.964;2023-01-15T08:11:32;98025.16;;;5.22;100.00
8318;BME280;4196;48.926;8.964;2023-01-15T08:14:37;98045.72;;;5.32;100.00
8318;BME280;4196;48.926;8.964;2023-01-15T08:17:44;98047.44;;;5.23;100.00
8318;BME280;4196;48.926;8.964;2023-01-15T08:20:33;98043.16;;;5.28;100.00
8318;BME280;4196;48.926;8.964;2023-01-15T08:23:20;98041.44;;;5.27;100.00
8318;BME280;4196;48.926;8.964;2023-01-15T08:26:06;98032.88;;;5.26;100.00
8318;BME280;4196;48.926;8.964;2023-01-15T08:28:53;98050.00;;;5.29;100.00
8318;BME280;4196;48.926;8.964;2023-01-15T08:31:39;98053.41;;;5.28;100.00
8318;BME280;4196;48.926;8.964;2023-01-15T08:34:26;98067.09;;;5.21;100.00
8318;BME280;4196;48.926;8.964;2023-01-15T08:37:13;98067.94;;;5.17;100.00
8318;BME280;4196;48.926;8.964;2023-01-15T08:39:59;98079.91;;;5.15;100.00
8318;BME280;4196;48.926;8.964;2023-01-15T08:42:46;98077.31;;;5.12;100.00
8318;BME280;4196;48.926;8.964;2023-01-15T08:45:32;98078.13;;;4.95;100.00
8318;BME280;4196;48.926;8.964;2023-01-15T08:48:19;98076.38;;;4.88;100.00
8318;BME280;4196;48.926;8.964;2023-01-15T08:51:08;98090.09;;;4.90;100.00
8318;BME280;4196;48.926;8.964;2023-01-15T08:53:54;98095.19;;;4.93;100.00
8318;BME280;4196;48.926;8.964;2023-01-15T08:56:41;98114.00;;;4.92;100.00
8318;BME280;4196;48.926;8.964;2023-01-15T08:59:27;98104.59;;;4.83;100.00
8318;BME280;4196;48.926;8.964;2023-01-15T09:02:14;98110.50;;;4.75;100.00
8318;BME280;4196;48.926;8.964;2023-01-15T09:05:01;98114.81;;;4.76;100.00
8318;BME280;4196;48.926;8.964;2023-01-15T09:07:47;98119.91;;;4.74;100.00
8318;BME280;4196;48.926;8.964;2023-01-15T09:10:34;98132.75;;;4.76;100.00
8318;BME280;4196;48.926;8.964;2023-01-15T09:13:21;98125.88;;;4.69;100.00
8318;BME280;4196;48.926;8.964;2023-01-15T09:16:08;98125.91;;;4.72;100.00
8318;BME280;4196;48.926;8.964;2023-01-15T09:18:56;98127.53;;;4.64;100.00
8318;BME280;4196;48.926;8.964;2023-01-15T09:21:42;98136.09;;;4.63;100.00
8318;BME280;4196;48.926;8.964;2023-01-15T09:24:29;98164.31;;;4.67;100.00
8318;BME280;4196;48.926;8.964;2023-01-15T09:27:15;98173.72;;;4.67;100.00
8318;BME280;4196;48.926;8.964;2023-01-15T09:30:03;98180.50;;;4.58;100.00
8318;BME280;4196;48.926;8.964;2023-01-15T09:32:49;98202.81;;;4.72;100.00
8318;BME280;4196;48.926;8.964;2023-01-15T09:35:36;98202.78;;;4.66;100.00
8318;BME280;4196;48.926;8.964;2023-01-15T09:38:23;98170.25;;;4.60;100.00
8318;BME280;4196;48.926;8.964;2023-01-15T09:41:13;98180.50;;;4.60;100.00
8318;BME280;4196;48.926;8.964;2023-01-15T09:44:31;98183.97;;;4.67;100.00
8318;BME280;4196;48.926;8.964;2023-01-15T09:47:54;98183.09;;;4.63;100.00
8318;BME280;4196;48.926;8.964;2023-01-15T09:56:45;98207.69;;;4.41;100.00
8318;BME280;4196;48.926;8.964;2023-01-15T09:59:35;98217.88;;;4.30;100.00
8318;BME280;4196;48.926;8.964;2023-01-15T10:05:27;98251.19;;;4.30;100.00
8318;BME280;4196;48.926;8.964;2023-01-15T10:08:18;98249.44;;;4.25;100.00
8318;BME280;4196;48.926;8.964;2023-01-15T10:11:46;98243.41;;;4.23;100.00
8318;BME280;4196;48.926;8.964;2023-01-15T10:17:52;98241.63;;;4.13;100.00
8318;BME280;4196;48.926;8.964;2023-01-15T10:20:48;98243.25;;;4.04;100.00
8318;BME280;4196;48.926;8.964;2023-01-15T10:27:21;98255.97;;;3.97;100.00
8318;BME280;4196;48.926;8.964;2023-01-15T10:30:16;98273.81;;;3.89;100.00
8318;BME280;4196;48.926;8.964;2023-01-15T10:34:18;98280.59;;;3.85;100.00
8318;BME280;4196;48.926;8.964;2023-01-15T10:36:41;98265.13;;;3.75;100.00
8318;BME280;4196;48.926;8.964;2023-01-15T10:45:59;98295.00;;;3.74;100.00
8318;BME280;4196;48.926;8.964;2023-01-15T10:48:54;98297.50;;;3.70;100.00
8318;BME280;4196;48.926;8.964;2023-01-15T10:51:43;98297.59;;;3.76;100.00
8318;BME280;4196;48.926;8.964;2023-01-15T10:55:26;98300.16;;;3.79;100.00
8318;BME280;4196;48.926;8.964;2023-01-15T11:01:00;98311.91;;;3.61;100.00
8318;BME280;4196;48.926;8.964;2023-01-15T11:03:48;98305.91;;;3.59;100.00
8318;BME280;4196;48.926;8.964;2023-01-15T11:06:35;98304.06;;;3.49;100.00
8318;BME280;4196;48.926;8.964;2023-01-15T11:09:24;98310.81;;;3.44;100.00
8318;BME280;4196;48.926;8.964;2023-01-15T11:15:13;98337.16;;;3.35;100.00
8318;BME280;4196;48.926;8.964;2023-01-15T11:18:32;98320.69;;;3.20;100.00
8318;BME280;4196;48.926;8.964;2023-01-15T11:21:40;98334.38;;;3.22;100.00
8318;BME280;4196;48.926;8.964;2023-01-15T11:24:28;98341.09;;;3.15;100.00
8318;BME280;4196;48.926;8.964;2023-01-15T11:27:26;98322.44;;;3.21;100.00
8318;BME280;4196;48.926;8.964;2023-01-15T11:30:25;98330.88;;;3.17;100.00
8318;BME280;4196;48.926;8.964;2023-01-15T11:33:23;98336.91;;;3.20;100.00
8318;BME280;4196;48.926;8.964;2023-01-15T11:36:23;98341.16;;;3.20;100.00
8318;BME280;4196;48.926;8.964;2023-01-15T11:39:26;98343.66;;;3.15;100.00
8318;BME280;4196;48.926;8.964;2023-01-15T11:42:15;98337.63;;;3.10;100.00
8318;BME280;4196;48.926;8.964;2023-01-15T11:45:22;98345.25;;;3.07;100.00
8318;BME280;4196;48.926;8.964;2023-01-15T11:48:28;98342.56;;;2.99;100.00
8318;BME280;4196;48.926;8.964;2023-01-15T11:51:40;98319.50;;;2.95;100.00
8318;BME280;4196;48.926;8.964;2023-01-15T11:54:29;98322.25;;;3.08;100.00
8318;BME280;4196;48.926;8.964;2023-01-15T11:57:26;98304.50;;;3.19;100.00
8318;BME280;4196;48.926;8.964;2023-01-15T12:03:18;98323.41;;;3.30;100.00
8318;BME280;4196;48.926;8.964;2023-01-15T12:06:08;98296.97;;;3.30;100.00
8318;BME280;4196;48.926;8.964;2023-01-15T12:09:13;98297.97;;;3.39;100.00
8318;BME280;4196;48.926;8.964;2023-01-15T12:12:24;98293.03;;;3.55;100.00
8318;BME280;4196;48.926;8.964;2023-01-15T12:15:51;98310.19;;;3.62;100.00
8318;BME280;4196;48.926;8.964;2023-01-15T12:19:00;98306.84;;;3.66;100.00
8318;BME280;4196;48.926;8.964;2023-01-15T12:25:27;98301.91;;;3.81;100.00
8318;BME280;4196;48.926;8.964;2023-01-15T12:28:26;98313.13;;;3.91;100.00
8318;BME280;4196;48.926;8.964;2023-01-15T12:31:21;98314.94;;;4.01;100.00
8318;BME280;4196;48.926;8.964;2023-01-15T12:34:28;98291.09;;;4.07;100.00
8318;BME280;4196;48.926;8.964;2023-01-15T12:37:31;98299.75;;;4.17;100.00
8318;BME280;4196;48.926;8.964;2023-01-15T12:40:32;98310.06;;;4.26;100.00
8318;BME280;4196;48.926;8.964;2023-01-15T12:43:27;98307.56;;;4.29;100.00
8318;BME280;4196;48.926;8.964;2023-01-15T12:46:32;98306.81;;;4.39;100.00
8318;BME280;4196;48.926;8.964;2023-01-15T12:49:33;98318.81;;;4.43;100.00
8318;BME280;4196;48.926;8.964;2023-01-15T12:52:26;98316.31;;;4.49;100.00
8318;BME280;4196;48.926;8.964;2023-01-15T12:55:25;98312.06;;;4.54;100.00
8318;BME280;4196;48.926;8.964;2023-01-15T12:58:25;98326.63;;;4.58;100.00
8318;BME280;4196;48.926;8.964;2023-01-15T13:01:30;98317.25;;;4.60;100.00
8318;BME280;4196;48.926;8.964;2023-01-15T13:04:27;98337.78;;;4.60;100.00
8318;BME280;4196;48.926;8.964;2023-01-15T13:07:26;98329.13;;;4.52;100.00
8318;BME280;4196;48.926;8.964;2023-01-15T13:10:20;98302.50;;;4.38;100.00
8318;BME280;4196;48.926;8.964;2023-01-15T13:13:22;98303.31;;;4.34;100.00
8318;BME280;4196;48.926;8.964;2023-01-15T13:16:20;98323.81;;;4.34;100.00
8318;BME280;4196;48.926;8.964;2023-01-15T13:22:13;98339.94;;;4.21;100.00
8318;BME280;4196;48.926;8.964;2023-01-15T13:28:33;98358.25;;;4.57;100.00
8318;BME280;4196;48.926;8.964;2023-01-15T13:37:31;98334.72;;;5.04;100.00
8318;BME280;4196;48.926;8.964;2023-01-15T13:40:40;98342.47;;;5.14;100.00
8318;BME280;4196;48.926;8.964;2023-01-15T13:43:37;98346.78;;;5.18;100.00
8318;BME280;4196;48.926;8.964;2023-01-15T13:46:25;98345.09;;;5.20;100.00
8318;BME280;4196;48.926;8.964;2023-01-15T13:49:21;98354.63;;;5.35;100.00
8318;BME280;4196;48.926;8.964;2023-01-15T13:52:27;98358.91;;;5.34;100.00
8318;BME280;4196;48.926;8.964;2023-01-15T13:58:00;98364.16;;;5.52;100.00
8318;BME280;4196;48.926;8.964;2023-01-15T14:01:06;98369.34;;;5.60;100.00
8318;BME280;4196;48.926;8.964;2023-01-15T14:06:57;98388.22;;;5.73;100.00
8318;BME280;4196;48.926;8.964;2023-01-15T14:09:43;98388.16;;;5.61;100.00
8318;BME280;4196;48.926;8.964;2023-01-15T14:15:43;98396.66;;;5.55;100.00
8318;BME280;4196;48.926;8.964;2023-01-15T14:25:17;98392.31;;;5.43;100.00
8318;BME280;4196;48.926;8.964;2023-01-15T14:34:27;98380.97;;;5.12;100.00
8318;BME280;4196;48.926;8.964;2023-01-15T14:37:31;98380.03;;;5.04;100.00
8318;BME280;4196;48.926;8.964;2023-01-15T14:40:24;98376.59;;;5.03;100.00
8318;BME280;4196;48.926;8.964;2023-01-15T14:43:18;98376.53;;;4.96;100.00
8318;BME280;4196;48.926;8.964;2023-01-15T14:46:32;98376.56;;;4.99;100.00
8318;BME280;4196;48.926;8.964;2023-01-15T14:49:30;98391.16;;;5.01;99.75
8318;BME280;4196;48.926;8.964;2023-01-15T14:52:22;98401.44;;;5.04;100.00
8318;BME280;4196;48.926;8.964;2023-01-15T14:55:11;98401.44;;;5.07;100.00
8318;BME280;4196;48.926;8.964;2023-01-15T14:58:04;98401.56;;;5.20;100.00
8318;BME280;4196;48.926;8.964;2023-01-15T15:04:21;98410.38;;;5.52;99.37
8318;BME280;4196;48.926;8.964;2023-01-15T15:07:17;98402.69;;;5.58;98.91
8318;BME280;4196;48.926;8.964;2023-01-15T15:13:17;98432.50;;;5.38;100.00
8318;BME280;4196;48.926;8.964;2023-01-15T15:16:12;98435.03;;;5.32;100.00
8318;BME280;4196;48.926;8.964;2023-01-15T15:19:12;98433.25;;;5.26;100.00
8318;BME280;4196;48.926;8.964;2023-01-15T15:22:04;98423.66;;;5.02;100.00
8318;BME280;4196;48.926;8.964;2023-01-15T15:24:53;98420.94;;;4.87;100.00
8318;BME280;4196;48.926;8.964;2023-01-15T15:27:39;98407.97;;;4.72;100.00
8318;BME280;4196;48.926;8.964;2023-01-15T15:30:26;98414.53;;;4.48;100.00
8318;BME280;4196;48.926;8.964;2023-01-15T15:33:18;98421.19;;;4.31;100.00
8318;BME280;4196;48.926;8.964;2023-01-15T15:36:06;98406.50;;;4.16;100.00
8318;BME280;4196;48.926;8.964;2023-01-15T15:38:59;98386.88;;;4.20;100.00
8318;BME280;4196;48.926;8.964;2023-01-15T15:41:48;98395.25;;;4.06;100.00
8318;BME280;4196;48.926;8.964;2023-01-15T15:44:58;98389.09;;;3.91;100.00
8318;BME280;4196;48.926;8.964;2023-01-15T15:48:29;98385.41;;;3.72;100.00
8318;BME280;4196;48.926;8.964;2023-01-15T15:51:48;98388.84;;;3.72;100.00
8318;BME280;4196;48.926;8.964;2023-01-15T15:54:35;98369.28;;;3.76;100.00
8318;BME280;4196;48.926;8.964;2023-01-15T15:57:22;98368.19;;;3.60;100.00
8318;BME280;4196;48.926;8.964;2023-01-15T16:00:30;98380.97;;;3.58;100.00
8318;BME280;4196;48.926;8.964;2023-01-15T16:03:21;98381.84;;;3.59;100.00
8318;BME280;4196;48.926;8.964;2023-01-15T16:06:19;98374.84;;;3.49;100.00
8318;BME280;4196;48.926;8.964;2023-01-15T16:09:08;98376.56;;;3.50;100.00
8318;BME280;4196;48.926;8.964;2023-01-15T16:11:54;98382.31;;;3.33;100.00
8318;BME280;4196;48.926;8.964;2023-01-15T16:14:53;98384.66;;;3.20;100.00
8318;BME280;4196;48.926;8.964;2023-01-15T16:17:40;98369.97;;;3.06;100.00
8318;BME280;4196;48.926;8.964;2023-01-15T16:20:27;98380.38;;;3.19;100.00
8318;BME280;4196;48.926;8.964;2023-01-15T16:23:19;98377.94;;;3.26;100.00
8318;BME280;4196;48.926;8.964;2023-01-15T16:26:18;98375.22;;;3.15;100.00
8318;BME280;4196;48.926;8.964;2023-01-15T16:29:16;98378.91;;;3.33;100.00
8318;BME280;4196;48.926;8.964;2023-01-15T16:32:12;98377.06;;;3.26;100.00
8318;BME280;4196;48.926;8.964;2023-01-15T16:35:05;98384.06;;;3.36;100.00
8318;BME280;4196;48.926;8.964;2023-01-15T16:37:56;98375.69;;;3.46;100.00
8318;BME280;4196;48.926;8.964;2023-01-15T16:40:44;98376.50;;;3.44;100.00
8318;BME280;4196;48.926;8.964;2023-01-15T16:43:31;98363.53;;;3.33;100.00
8318;BME280;4196;48.926;8.964;2023-01-15T16:46:49;98363.38;;;3.21;100.00
8318;BME280;4196;48.926;8.964;2023-01-15T16:49:38;98369.28;;;3.20;100.00
8318;BME280;4196;48.926;8.964;2023-01-15T16:52:47;98368.66;;;3.33;100.00
8318;BME280;4196;48.926;8.964;2023-01-15T16:58:44;98369.22;;;3.13;100.00
8318;BME280;4196;48.926;8.964;2023-01-15T17:01:36;98371.97;;;3.26;100.00
8318;BME280;4196;48.926;8.964;2023-01-15T17:04:30;98365.88;;;3.19;100.00
8318;BME280;4196;48.926;8.964;2023-01-15T17:07:22;98361.44;;;3.07;100.00
8318;BME280;4196;48.926;8.964;2023-01-15T17:10:21;98344.44;;;3.09;100.00